Item Display Status Humidity-temperature Sensor

Elevation Above Sea Level: 3 m

 

Deployed Sensor

  • Serial Number: 20256986
  • NDBC Property Number: 42280
  • Start Date: 11/19/2018 (13:10:08 Z)
  • End Date: Currently Active
Relative Humidity [%]     6 entries per hour
Showing data from 2/5/2020 (16:00:00 Z) to 2/4/2020 (00:00:01 Z)
Previous Next [ Day | 3-Days | 7-Days ]
First Last
Prev [ Day | 3-Days | 7-Days ] Next
First Last

Start Time:     :
End Time:     :     
Time (in GMT) :00 :50 :40 :30 :20 :10
Previous Next [ Day | 3-Days | 7-Days ]
First Last
Prev [ Day | 3-Days | 7-Days ] Next
First Last


123 => good data
MM => data is determined as missing
-- => data not received/configured
Back to Top Back to Top
2/5/2020 16:00 to 15:10 92.61 92.96 90.96 91.07 92.16 92.47
2/5/2020 15:00 to 14:10 93.22 92.81 93.14 93.97 93.32 94.91
2/5/2020 14:00 to 13:10 96.21 96.15 95.52 94.34 92.85 88.40
2/5/2020 13:00 to 12:10 87.83 88.67 89.03 89.46 88.83 88.38
2/5/2020 12:00 to 11:10 89.32 89.83 89.95 90.07 89.60 88.65
2/5/2020 11:00 to 10:10 89.28 89.68 90.27 89.95 89.17 88.71
2/5/2020 10:00 to 9:10 87.85 88.14 87.73 88.44 88.97 88.30
2/5/2020 09:00 to 8:10 87.89 87.85 87.69 87.73 87.77 87.59
2/5/2020 08:00 to 7:10 87.65 87.00 87.28 87.53 87.47 87.06
2/5/2020 07:00 to 6:10 86.78 86.84 86.02 85.09 85.41 85.52
2/5/2020 06:00 to 5:10 85.43 86.09 86.00 85.35 85.21 85.23
2/5/2020 05:00 to 4:10 85.60 84.64 85.72 88.40 89.40 90.78
2/5/2020 04:00 to 3:10 90.96 89.50 86.72 87.37 85.90 85.25
2/5/2020 03:00 to 2:10 86.21 84.34 85.64 84.89 85.48 84.17
2/5/2020 02:00 to 1:10 82.87 85.05 86.53 87.51 86.45 86.25
2/5/2020 01:00 to 0:10 85.98 86.13 86.17 86.25 86.27 85.90
2/5/2020 00:00 to 23:10 86.07 86.72 86.31 85.64 85.78 84.97
2/4/2020 23:00 to 22:10 85.23 85.84 87.14 86.92 86.43 86.82
2/4/2020 22:00 to 21:10 86.92 85.86 85.48 85.58 85.19 86.17
2/4/2020 21:00 to 20:10 85.62 85.50 85.74 85.80 86.47 86.72
2/4/2020 20:00 to 19:10 86.11 86.17 86.63 86.19 86.02 87.12
2/4/2020 19:00 to 18:10 88.38 88.04 87.94 87.26 86.74 86.04
2/4/2020 18:00 to 17:10 85.96 86.29 86.07 86.17 85.88 86.43
2/4/2020 17:00 to 16:10 86.74 86.47 86.35 86.84 89.05 88.24
2/4/2020 16:00 to 15:10 86.45 86.72 86.67 86.74 86.86 86.94
2/4/2020 15:00 to 14:10 87.41 87.39 87.67 88.26 88.67 88.83
2/4/2020 14:00 to 13:10 88.77 88.30 87.77 88.97 89.20 89.30
2/4/2020 13:00 to 12:10 89.24 88.79 89.40 89.80 90.64 89.56
2/4/2020 12:00 to 11:10 89.54 89.03 88.83 89.13 89.52 88.93
2/4/2020 11:00 to 10:10 89.66 89.42 88.83 89.05 89.28 89.15
2/4/2020 10:00 to 9:10 88.61 88.57 88.79 89.07 89.28 89.05
2/4/2020 09:00 to 8:10 88.48 88.77 88.77 88.20 88.59 88.91
2/4/2020 08:00 to 7:10 88.69 88.65 90.33 91.65 91.39 90.90
2/4/2020 07:00 to 6:10 90.31 90.44 89.83 90.39 90.33 90.33
2/4/2020 06:00 to 5:10 90.80 91.94 91.37 91.02 91.29 91.43
2/4/2020 05:00 to 4:10 92.06 91.98 91.21 89.76 89.56 89.78
2/4/2020 04:00 to 3:10 90.74 91.59 91.55 91.94 90.94 89.52
2/4/2020 03:00 to 2:10 88.18 90.21 89.99 90.29 91.92 91.33
2/4/2020 02:00 to 1:10 90.86 90.62 91.07 91.35 90.74 91.49
2/4/2020 01:00 to 0:10 89.26 91.82 90.82 93.04 94.15 93.28

 

 

 

Air Temperature [°C]     6 entries per hour
Showing data from 7/24/2019 (01:30:00 Z) to 7/23/2019 (00:00:01 Z)
Previous Next [ Day | 3-Days | 7-Days ]
First Last
Prev [ Day | 3-Days | 7-Days ] Next
First Last

Start Time:     :
End Time:     :     
Time (in GMT) :00 :50 :40 :30 :20 :10
Previous Next [ Day | 3-Days | 7-Days ]
First Last
Prev [ Day | 3-Days | 7-Days ] Next
First Last


123 => good data
MM => data is determined as missing
-- => data not received/configured
Back to Top Back to Top
7/24/2019 02:00 to 1:10 -- -- -- 22.82 22.73 23.02
7/24/2019 01:00 to 0:10 22.81 22.69 22.96 22.91 22.90 22.85
7/24/2019 00:00 to 23:10 22.60 23.08 23.06 23.29 23.26 23.25
7/23/2019 23:00 to 22:10 22.73 22.27 23.10 23.27 22.72 23.16
7/23/2019 22:00 to 21:10 23.18 23.27 23.14 23.13 23.00 22.85
7/23/2019 21:00 to 20:10 23.38 23.35 22.78 23.30 23.28 23.16
7/23/2019 20:00 to 19:10 22.89 22.62 23.06 23.17 23.19 22.97
7/23/2019 19:00 to 18:10 23.29 23.36 23.42 23.39 23.22 23.32
7/23/2019 18:00 to 17:10 23.18 23.14 23.18 23.34 23.48 23.46
7/23/2019 17:00 to 16:10 23.50 23.48 23.37 23.28 23.30 23.37
7/23/2019 16:00 to 15:10 23.34 23.32 23.29 23.36 23.27 23.12
7/23/2019 15:00 to 14:10 22.96 22.91 22.79 22.06 22.46 22.51
7/23/2019 14:00 to 13:10 22.61 22.79 22.57 22.27 22.29 22.23
7/23/2019 13:00 to 12:10 22.73 22.28 21.85 22.24 22.86 23.14
7/23/2019 12:00 to 11:10 23.18 23.21 23.20 23.28 23.26 23.23
7/23/2019 11:00 to 10:10 23.22 23.24 23.28 23.27 23.32 23.22
7/23/2019 10:00 to 9:10 23.23 23.37 23.23 23.37 23.26 23.13
7/23/2019 09:00 to 8:10 23.23 23.26 23.17 23.41 23.30 23.35
7/23/2019 08:00 to 7:10 23.22 23.01 23.04 23.08 23.04 23.53
7/23/2019 07:00 to 6:10 23.52 23.40 23.48 23.36 23.44 23.32
7/23/2019 06:00 to 5:10 23.39 23.22 23.22 23.16 23.25 23.26
7/23/2019 05:00 to 4:10 23.40 23.33 23.34 23.38 23.38 23.51
7/23/2019 04:00 to 3:10 23.58 23.56 23.54 23.60 23.39 23.35
7/23/2019 03:00 to 2:10 23.39 23.38 23.42 23.38 23.25 23.29
7/23/2019 02:00 to 1:10 23.20 22.84 23.11 23.00 22.97 23.04
7/23/2019 01:00 to 0:10 23.13 23.18 23.13 23.14 23.31 23.25